Canisteo, Minnesota
Current Conditions -  °F | °C
As of 11:33 PM on Wednesday 22 Oct 2014 (Local Time) from KTOB Reporting Station
Clear Clear  
Wind Chill: 52°   Ceiling: Unl
Heat Index: 52°   Visibility: 10mi
Dew Point: 41°   Wind: 18mph
Humidity: 67%   Direction: 180°S
Pressure: 30.08"   Gusts: NA
Location:  43.9902°N, 92.7388°W
Report Text: KTOB 230433Z AUTO 18016KT 10SM CLR 11/05 A3008 RMK AO2
Loading
Personal Weather Stations






























Interactive Weather Map
Tropical Storm Tracking
New forecast layout! Learn more

10-Day Weather Forecast

Advertisements
Track Severe Weather on mobile